createdAt,value
2019-01-31T00:01:34.310Z,7.93
2019-01-31T00:04:21.162Z,10.03
2019-01-31T00:07:44.781Z,11.50
2019-01-31T00:13:43.244Z,12.50
2019-01-31T00:23:24.734Z,14.87
2019-01-31T00:27:01.619Z,14.43
2019-01-31T00:30:20.088Z,17.10
2019-01-31T00:33:14.344Z,13.43
2019-01-31T00:36:04.608Z,10.30
2019-01-31T00:38:56.267Z,11.70
2019-01-31T00:41:38.470Z,7.73
2019-01-31T00:44:32.394Z,9.27
2019-01-31T00:47:29.036Z,9.27
2019-01-31T00:50:50.510Z,8.10
2019-01-31T00:57:14.003Z,5.87
2019-01-31T01:00:09.035Z,10.60
2019-01-31T01:03:08.927Z,7.03
2019-01-31T01:05:55.780Z,11.30
2019-01-31T01:08:32.044Z,7.67
2019-01-31T01:11:08.474Z,12.10
2019-01-31T01:13:49.814Z,6.03
2019-01-31T01:16:22.367Z,5.73
2019-01-31T01:19:22.498Z,9.20
2019-01-31T01:22:22.400Z,7.07
2019-01-31T01:25:09.763Z,7.77
2019-01-31T01:27:46.083Z,7.60
2019-01-31T01:30:34.123Z,8.20
2019-01-31T01:33:33.916Z,12.27
2019-01-31T01:36:14.641Z,14.37
2019-01-31T01:39:18.600Z,10.13
2019-01-31T01:41:44.506Z,8.40
2019-01-31T01:44:22.557Z,10.23
2019-01-31T01:46:58.615Z,8.17
2019-01-31T01:49:34.289Z,13.83
2019-01-31T01:52:10.151Z,10.07
2019-01-31T01:54:57.223Z,10.97
2019-01-31T01:57:30.845Z,12.13
2019-01-31T02:00:22.111Z,12.00
2019-01-31T02:02:58.879Z,12.37
2019-01-31T02:05:59.871Z,12.40
2019-01-31T02:09:04.551Z,13.43
2019-01-31T02:11:44.013Z,13.27
2019-01-31T02:14:39.847Z,18.60
2019-01-31T02:17:18.778Z,15.67
2019-01-31T02:20:07.601Z,18.50
2019-01-31T02:22:44.153Z,21.90
2019-01-31T02:25:18.791Z,21.77
2019-01-31T02:28:11.728Z,22.83
2019-01-31T02:30:47.933Z,22.40
2019-01-31T02:33:39.094Z,25.80
2019-01-31T02:36:19.195Z,26.80
2019-01-31T02:39:01.764Z,23.47
2019-01-31T02:41:34.624Z,30.43
2019-01-31T02:44:22.355Z,22.10
2019-01-31T02:47:19.680Z,22.50
2019-01-31T02:50:10.641Z,24.87
2019-01-31T02:53:14.078Z,24.97
2019-01-31T02:56:00.336Z,26.87
2019-01-31T02:58:37.056Z,22.93
2019-01-31T03:01:27.508Z,22.63
2019-01-31T03:04:18.419Z,28.50
2019-01-31T03:07:18.473Z,24.37
2019-01-31T03:10:04.355Z,25.77
2019-01-31T03:12:44.174Z,24.43
2019-01-31T03:15:16.971Z,22.57
2019-01-31T03:18:05.291Z,24.80
2019-01-31T03:21:05.278Z,25.97
2019-01-31T03:23:54.805Z,29.47
2019-01-31T03:26:57.167Z,25.83
2019-01-31T03:29:43.771Z,27.70
2019-01-31T03:32:26.305Z,24.97
2019-01-31T03:35:24.710Z,27.23
2019-01-31T03:38:15.794Z,29.27
2019-01-31T03:41:07.858Z,25.73
2019-01-31T03:43:39.951Z,28.90
2019-01-31T03:46:29.858Z,26.17
2019-01-31T03:49:01.564Z,26.83
2019-01-31T03:51:55.451Z,26.63
2019-01-31T03:54:46.248Z,28.33
2019-01-31T03:57:40.451Z,29.27
2019-01-31T04:00:31.703Z,26.17
2019-01-31T04:03:02.849Z,28.53
2019-01-31T04:05:36.882Z,24.47
2019-01-31T04:08:06.058Z,25.43
2019-01-31T04:10:36.923Z,29.40
2019-01-31T04:13:06.195Z,24.27
2019-01-31T04:15:38.506Z,26.47
2019-01-31T04:18:07.958Z,29.77
2019-01-31T04:20:54.741Z,25.80
2019-01-31T04:23:28.653Z,24.97
2019-01-31T04:25:57.893Z,27.27
2019-01-31T04:28:26.996Z,27.43
2019-01-31T04:30:56.172Z,28.57
2019-01-31T04:33:25.317Z,29.63
2019-01-31T04:36:01.602Z,29.73
2019-01-31T04:38:33.485Z,31.47
2019-01-31T04:41:02.668Z,25.67
2019-01-31T04:43:32.635Z,29.50
2019-01-31T04:46:01.772Z,27.93
2019-01-31T04:48:30.795Z,26.87
2019-01-31T04:50:59.753Z,29.67
2019-01-31T04:53:28.660Z,30.03
2019-01-31T04:55:57.666Z,27.27
2019-01-31T04:58:26.528Z,29.13
2019-01-31T05:00:59.904Z,27.10
2019-01-31T05:03:28.616Z,30.10
2019-01-31T05:05:57.765Z,28.23
2019-01-31T05:08:27.065Z,26.20
2019-01-31T05:11:09.917Z,24.53
2019-01-31T05:16:47.528Z,24.20
2019-01-31T05:19:18.250Z,23.50
2019-01-31T05:21:50.762Z,24.33
2019-01-31T05:24:24.261Z,19.57
2019-01-31T05:26:53.448Z,25.87
2019-01-31T05:29:22.140Z,21.90
2019-01-31T05:31:50.926Z,18.90
2019-01-31T06:12:03.175Z,18.30
2019-01-31T06:14:31.830Z,21.47
2019-01-31T06:17:00.399Z,18.37
2019-01-31T06:19:29.123Z,20.00
2019-01-31T06:21:57.764Z,20.77
2019-01-31T06:24:26.992Z,20.87
2019-01-31T06:26:55.541Z,18.97
2019-01-31T06:30:23.658Z,18.70
2019-01-31T06:33:18.116Z,18.90
2019-01-31T06:36:06.864Z,18.50
2019-01-31T06:38:27.437Z,18.90
2019-01-31T06:41:02.118Z,17.50
2019-01-31T06:46:53.813Z,18.50
2019-01-31T06:49:33.180Z,20.37
2019-01-31T06:53:03.209Z,19.20
2019-01-31T07:15:58.786Z,24.10
2019-01-31T07:21:47.719Z,25.20
2019-01-31T07:37:06.510Z,29.53
2019-01-31T07:39:35.201Z,29.67
2019-01-31T07:42:03.783Z,31.00
2019-01-31T07:44:32.237Z,30.53
2019-01-31T07:47:00.740Z,31.10
2019-01-31T07:49:29.350Z,31.87
2019-01-31T07:51:58.092Z,28.90
2019-01-31T07:54:26.613Z,31.53
2019-01-31T07:56:55.252Z,34.90
2019-01-31T07:59:23.745Z,38.67
2019-01-31T08:01:52.329Z,35.77
2019-01-31T08:04:20.868Z,38.40
2019-01-31T08:06:49.350Z,41.90
2019-01-31T08:09:17.861Z,43.37
2019-01-31T08:11:52.779Z,46.97
2019-01-31T08:14:19.350Z,46.63
2019-01-31T08:16:48.206Z,49.90
2019-01-31T08:19:16.727Z,56.10
2019-01-31T08:21:45.260Z,65.67
2019-01-31T08:24:14.605Z,68.93
2019-01-31T08:26:43.864Z,83.77
2019-01-31T08:29:12.412Z,96.37
2019-01-31T08:31:40.994Z,106.30
2019-01-31T08:34:10.396Z,112.13
2019-01-31T08:36:38.836Z,128.47
2019-01-31T08:39:08.287Z,126.03
2019-01-31T08:41:36.976Z,123.67
2019-01-31T08:44:05.844Z,136.90
2019-01-31T08:46:34.433Z,126.40
2019-01-31T08:49:02.888Z,126.03
2019-01-31T08:51:31.504Z,114.97
2019-01-31T08:53:59.952Z,116.80
2019-01-31T08:56:28.563Z,111.33
2019-01-31T08:58:57.034Z,115.10
2019-01-31T09:01:25.661Z,122.03
2019-01-31T09:03:54.476Z,151.47
2019-01-31T09:06:23.075Z,154.70
2019-01-31T09:08:53.996Z,122.50
2019-01-31T09:11:22.676Z,110.33
2019-01-31T09:13:51.187Z,136.27
2019-01-31T09:16:19.679Z,111.77
2019-01-31T09:18:48.716Z,100.10
2019-01-31T09:21:23.141Z,92.27
2019-01-31T09:24:07.771Z,97.60
2019-01-31T09:26:44.915Z,96.37
2019-01-31T09:29:25.443Z,111.20
2019-01-31T09:32:19.147Z,94.77
2019-01-31T09:34:51.341Z,99.03
2019-01-31T09:37:37.692Z,106.20
2019-01-31T09:40:25.501Z,111.27
2019-01-31T09:43:19.330Z,110.37
2019-01-31T09:46:10.094Z,101.20
2019-01-31T09:48:42.442Z,114.63
2019-01-31T09:51:30.379Z,103.23
2019-01-31T09:54:18.404Z,98.80
2019-01-31T09:57:04.768Z,85.07
2019-01-31T09:59:52.984Z,99.30
2019-01-31T10:02:46.697Z,85.03
2019-01-31T10:05:29.568Z,94.70
2019-01-31T10:08:11.204Z,87.63
2019-01-31T10:10:58.901Z,97.27
2019-01-31T10:13:33.282Z,90.07
2019-01-31T10:16:21.300Z,79.50
2019-01-31T10:19:07.890Z,74.77
2019-01-31T10:21:43.432Z,74.50
2019-01-31T10:24:40.368Z,72.30
2019-01-31T10:27:31.187Z,83.23
2019-01-31T10:30:05.724Z,72.07
2019-01-31T10:32:42.726Z,70.07
2019-01-31T10:35:30.788Z,80.20
2019-01-31T10:38:30.479Z,71.30
2019-01-31T10:41:05.028Z,73.80
2019-01-31T10:43:41.145Z,71.33
2019-01-31T10:46:40.689Z,68.13
2019-01-31T10:49:19.499Z,66.87
2019-01-31T10:51:59.162Z,71.57
2019-01-31T10:54:33.923Z,78.97
2019-01-31T10:57:11.076Z,71.83
2019-01-31T11:00:13.621Z,60.00
2019-01-31T11:03:02.140Z,72.57
2019-01-31T11:05:50.136Z,69.83
2019-01-31T11:08:46.648Z,68.67
2019-01-31T11:11:22.107Z,68.40
2019-01-31T11:14:09.964Z,57.33
2019-01-31T11:16:49.819Z,62.10
2019-01-31T11:19:37.769Z,69.77
2019-01-31T11:22:37.600Z,64.03
2019-01-31T11:25:34.305Z,62.93
2019-01-31T11:28:21.993Z,55.20
2019-01-31T11:30:56.868Z,59.57
2019-01-31T11:33:44.676Z,58.00
2019-01-31T11:36:35.691Z,54.83
2019-01-31T11:39:26.552Z,57.73
2019-01-31T11:42:01.952Z,53.03
2019-01-31T11:44:48.016Z,56.53
2019-01-31T11:47:44.789Z,63.07
2019-01-31T11:50:35.639Z,70.03
2019-01-31T11:53:29.497Z,73.13
2019-01-31T11:56:06.366Z,67.73
2019-01-31T11:58:43.244Z,67.73
2019-01-31T12:01:11.763Z,72.67
2019-01-31T12:03:40.907Z,70.10
2019-01-31T12:06:09.431Z,87.90
2019-01-31T12:08:37.977Z,95.47
2019-01-31T12:11:06.562Z,91.53
2019-01-31T12:13:35.043Z,88.70
2019-01-31T12:16:03.515Z,95.20
2019-01-31T12:18:32.256Z,100.73
2019-01-31T12:21:00.658Z,93.57
2019-01-31T12:23:29.067Z,103.00
2019-01-31T12:25:57.694Z,112.73
2019-01-31T12:28:26.176Z,102.77
2019-01-31T12:30:54.713Z,109.80
2019-01-31T12:33:23.265Z,97.80
2019-01-31T12:35:51.652Z,104.00
2019-01-31T12:38:22.893Z,100.37
2019-01-31T12:40:52.120Z,109.03
2019-01-31T12:43:20.587Z,103.87
2019-01-31T12:45:49.098Z,111.57
2019-01-31T12:48:17.703Z,86.73
2019-01-31T12:50:46.236Z,91.23
2019-01-31T12:53:14.910Z,94.47
2019-01-31T12:55:43.411Z,89.70
2019-01-31T12:58:11.915Z,85.27
2019-01-31T13:00:41.071Z,97.00
2019-01-31T13:03:09.684Z,89.80
2019-01-31T13:05:38.174Z,84.97
2019-01-31T13:08:06.851Z,92.73
2019-01-31T13:10:35.538Z,82.97
2019-01-31T13:13:04.072Z,87.37
2019-01-31T13:15:32.597Z,80.80
2019-01-31T13:18:01.249Z,83.90
2019-01-31T13:20:29.723Z,82.60
2019-01-31T13:22:58.248Z,82.60
2019-01-31T13:25:27.398Z,88.07
2019-01-31T13:27:56.291Z,80.43
2019-01-31T13:30:25.698Z,78.50
2019-01-31T13:32:54.956Z,78.00
2019-01-31T13:35:24.298Z,74.50
2019-01-31T13:37:52.877Z,77.27
2019-01-31T13:40:22.197Z,73.17
2019-01-31T13:42:51.234Z,79.43
2019-01-31T13:45:20.999Z,76.50
2019-01-31T13:47:49.515Z,75.87
2019-01-31T13:50:18.133Z,78.83
2019-01-31T13:52:46.681Z,72.73
2019-01-31T13:55:22.308Z,79.30
2019-01-31T13:57:50.802Z,82.03
2019-01-31T14:00:19.322Z,81.17
2019-01-31T14:02:48.177Z,79.40
2019-01-31T14:05:16.812Z,78.33
2019-01-31T14:07:45.299Z,71.97
2019-01-31T14:10:15.479Z,69.40
2019-01-31T14:12:44.024Z,66.50
2019-01-31T14:15:12.868Z,66.70
2019-01-31T14:17:41.405Z,65.93
2019-01-31T14:20:11.488Z,66.77
2019-01-31T14:22:42.954Z,62.03
2019-01-31T14:25:10.435Z,63.10
2019-01-31T14:27:38.981Z,62.00
2019-01-31T14:30:10.306Z,60.83
2019-01-31T14:32:39.127Z,59.70
2019-01-31T14:35:08.271Z,60.90
2019-01-31T14:38:19.048Z,59.53
2019-01-31T15:44:13.842Z,50.23
2019-01-31T15:46:45.113Z,48.33
2019-01-31T15:49:14.108Z,46.77
2019-01-31T17:48:38.562Z,71.90
2019-01-31T17:51:21.489Z,63.77
2019-01-31T17:54:01.885Z,73.90
2019-01-31T17:56:31.047Z,68.57
2019-01-31T17:59:03.285Z,73.13
2019-01-31T18:02:08.686Z,74.50
2019-01-31T18:07:35.888Z,64.93
2019-01-31T18:10:12.088Z,53.33
2019-01-31T18:12:57.388Z,60.67
2019-01-31T18:15:53.785Z,68.00
2019-01-31T18:18:23.146Z,55.00
2019-01-31T18:23:59.708Z,56.50
2019-01-31T18:42:09.080Z,50.37
2019-01-31T18:44:43.698Z,56.33
2019-01-31T18:47:21.544Z,50.10
2019-01-31T18:50:24.092Z,48.20
2019-01-31T19:05:24.702Z,51.87
2019-01-31T19:08:28.611Z,53.03
2019-01-31T19:11:10.725Z,53.53
2019-01-31T19:13:44.204Z,47.77
2019-01-31T19:16:32.458Z,52.97
2019-01-31T19:37:10.097Z,59.43
2019-01-31T20:02:16.173Z,63.13
2019-01-31T20:04:46.720Z,61.27
2019-01-31T20:07:16.423Z,58.70
2019-01-31T20:10:00.378Z,63.10
2019-01-31T20:15:45.515Z,58.30
2019-01-31T20:18:23.360Z,50.30
2019-01-31T20:21:28.700Z,56.77
2019-01-31T20:24:02.023Z,50.93
2019-01-31T20:26:40.579Z,48.37
2019-01-31T20:29:13.832Z,52.37
2019-01-31T20:31:48.444Z,48.97
2019-01-31T20:34:17.211Z,50.00
2019-01-31T20:36:48.836Z,52.20
2019-01-31T20:39:17.653Z,49.47
2019-01-31T20:41:54.384Z,48.43
2019-01-31T20:44:22.519Z,50.83
2019-01-31T20:46:53.751Z,48.10
2019-01-31T20:49:22.516Z,47.63
2019-01-31T20:51:53.151Z,51.57
2019-01-31T20:54:21.509Z,47.07
2019-01-31T20:56:52.699Z,49.60
2019-01-31T20:59:21.432Z,49.47
2019-01-31T21:01:50.069Z,49.17
2019-01-31T21:04:19.028Z,57.97
2019-01-31T21:06:49.759Z,55.53
2019-01-31T21:09:21.894Z,65.73
2019-01-31T21:12:16.209Z,63.87
2019-01-31T21:14:46.768Z,60.40
2019-01-31T21:17:17.062Z,65.83
2019-01-31T21:19:50.196Z,63.57
2019-01-31T21:22:20.982Z,62.17
2019-01-31T21:25:05.847Z,61.00
2019-01-31T21:27:28.263Z,64.07
2019-01-31T21:30:00.533Z,65.57
2019-01-31T21:32:35.909Z,60.63
2019-01-31T21:35:05.988Z,66.97
2019-01-31T21:37:35.130Z,66.77
2019-01-31T21:40:07.609Z,67.77
2019-01-31T21:42:42.286Z,71.20
2019-01-31T21:46:04.748Z,68.80
2019-01-31T21:48:33.615Z,67.57
2019-01-31T21:51:08.737Z,69.90
2019-01-31T21:53:37.407Z,78.80
2019-01-31T21:56:05.934Z,71.17
2019-01-31T21:58:36.424Z,70.33
2019-01-31T22:01:05.425Z,66.60
2019-01-31T22:03:37.032Z,71.00
2019-01-31T22:06:22.317Z,71.63
2019-01-31T22:08:45.951Z,67.60
2019-01-31T22:11:14.939Z,66.33
2019-01-31T22:13:50.573Z,68.93
2019-01-31T22:16:20.731Z,65.27
2019-01-31T22:18:49.534Z,66.97
2019-01-31T22:21:19.650Z,67.80
2019-01-31T22:23:48.641Z,70.63
2019-01-31T22:26:37.366Z,69.20
2019-01-31T22:29:08.253Z,71.63
2019-01-31T22:31:38.986Z,70.60
2019-01-31T22:34:10.999Z,67.67
2019-01-31T22:36:40.313Z,61.97
2019-01-31T22:39:09.297Z,66.13
2019-01-31T22:45:48.340Z,64.03
2019-01-31T22:47:52.639Z,63.57
2019-01-31T22:50:29.378Z,61.23
2019-01-31T22:53:01.698Z,61.93
2019-01-31T22:55:31.876Z,58.73
2019-01-31T22:58:02.142Z,62.47
2019-01-31T23:00:55.193Z,68.33
2019-01-31T23:03:24.207Z,61.40
2019-01-31T23:05:53.529Z,61.93
2019-01-31T23:08:22.506Z,59.07
2019-01-31T23:10:51.538Z,65.07
2019-01-31T23:13:20.660Z,65.47
2019-01-31T23:15:52.162Z,64.20
2019-01-31T23:18:21.776Z,62.50
2019-01-31T23:21:09.761Z,60.50
2019-01-31T23:23:40.815Z,56.90
2019-01-31T23:26:18.474Z,60.53
2019-01-31T23:29:03.499Z,59.93
2019-01-31T23:31:32.940Z,62.53
2019-01-31T23:34:02.997Z,64.27
2019-01-31T23:36:52.714Z,58.53
2019-01-31T23:39:21.871Z,52.20
2019-01-31T23:41:54.772Z,57.33
2019-01-31T23:44:25.270Z,58.20
2019-01-31T23:46:54.349Z,59.07
2019-01-31T23:49:23.532Z,57.70
2019-01-31T23:51:52.627Z,57.73
2019-01-31T23:54:21.648Z,53.17
2019-01-31T23:56:50.980Z,55.80
2019-01-31T23:59:21.696Z,53.40
